sensor_id;sensor_type;location;lat;lon;timestamp;temperature;humidity
31369;DHT22;18004;48.416;10.066;2022-08-03T00:01:32;19.80;92.10
31369;DHT22;18004;48.416;10.066;2022-08-03T00:03:58;19.80;91.40
31369;DHT22;18004;48.416;10.066;2022-08-03T00:06:24;19.80;91.50
31369;DHT22;18004;48.416;10.066;2022-08-03T00:08:50;19.80;91.10
31369;DHT22;18004;48.416;10.066;2022-08-03T00:11:16;19.70;91.20
31369;DHT22;18004;48.416;10.066;2022-08-03T00:13:42;19.70;91.40
31369;DHT22;18004;48.416;10.066;2022-08-03T00:16:08;19.60;91.50
31369;DHT22;18004;48.416;10.066;2022-08-03T00:18:35;19.60;91.80
31369;DHT22;18004;48.416;10.066;2022-08-03T00:21:02;19.60;91.60
31369;DHT22;18004;48.416;10.066;2022-08-03T00:23:28;19.60;91.60
31369;DHT22;18004;48.416;10.066;2022-08-03T00:25:54;19.50;91.00
31369;DHT22;18004;48.416;10.066;2022-08-03T00:28:20;19.50;91.50
31369;DHT22;18004;48.416;10.066;2022-08-03T00:30:46;19.40;91.10
31369;DHT22;18004;48.416;10.066;2022-08-03T00:33:11;19.40;91.50
31369;DHT22;18004;48.416;10.066;2022-08-03T00:35:37;19.40;91.60
31369;DHT22;18004;48.416;10.066;2022-08-03T00:38:04;19.30;91.50
31369;DHT22;18004;48.416;10.066;2022-08-03T00:40:31;19.30;91.20
31369;DHT22;18004;48.416;10.066;2022-08-03T00:43:02;19.30;91.70
31369;DHT22;18004;48.416;10.066;2022-08-03T00:45:33;19.20;92.20
31369;DHT22;18004;48.416;10.066;2022-08-03T00:48:00;19.10;93.30
31369;DHT22;18004;48.416;10.066;2022-08-03T00:50:28;19.10;93.60
31369;DHT22;18004;48.416;10.066;2022-08-03T00:52:56;19.00;94.00
31369;DHT22;18004;48.416;10.066;2022-08-03T00:55:22;19.00;94.00
31369;DHT22;18004;48.416;10.066;2022-08-03T00:57:48;19.00;94.20
31369;DHT22;18004;48.416;10.066;2022-08-03T01:00:20;19.00;93.80
31369;DHT22;18004;48.416;10.066;2022-08-03T01:02:46;19.00;93.80
31369;DHT22;18004;48.416;10.066;2022-08-03T01:05:12;19.00;93.40
31369;DHT22;18004;48.416;10.066;2022-08-03T01:10:53;19.00;92.50
31369;DHT22;18004;48.416;10.066;2022-08-03T01:13:33;19.00;93.60
31369;DHT22;18004;48.416;10.066;2022-08-03T01:16:05;19.00;94.20
31369;DHT22;18004;48.416;10.066;2022-08-03T01:18:38;19.00;93.50
31369;DHT22;18004;48.416;10.066;2022-08-03T01:21:11;19.00;93.30
31369;DHT22;18004;48.416;10.066;2022-08-03T01:23:48;18.90;94.10
31369;DHT22;18004;48.416;10.066;2022-08-03T01:26:42;18.90;94.20
31369;DHT22;18004;48.416;10.066;2022-08-03T01:29:48;18.90;93.80
31369;DHT22;18004;48.416;10.066;2022-08-03T01:32:25;18.80;93.40
31369;DHT22;18004;48.416;10.066;2022-08-03T01:35:01;18.80;93.10
31369;DHT22;18004;48.416;10.066;2022-08-03T01:37:36;18.70;93.30
31369;DHT22;18004;48.416;10.066;2022-08-03T01:40:04;18.60;93.20
31369;DHT22;18004;48.416;10.066;2022-08-03T01:42:31;18.60;93.40
31369;DHT22;18004;48.416;10.066;2022-08-03T01:44:59;18.60;93.00
31369;DHT22;18004;48.416;10.066;2022-08-03T01:47:27;18.50;92.60
31369;DHT22;18004;48.416;10.066;2022-08-03T01:49:55;18.50;93.40
31369;DHT22;18004;48.416;10.066;2022-08-03T01:52:22;18.40;93.20
31369;DHT22;18004;48.416;10.066;2022-08-03T01:54:51;18.40;93.80
31369;DHT22;18004;48.416;10.066;2022-08-03T01:57:18;18.30;94.20
31369;DHT22;18004;48.416;10.066;2022-08-03T01:59:45;18.30;93.20
31369;DHT22;18004;48.416;10.066;2022-08-03T02:02:15;18.30;93.70
31369;DHT22;18004;48.416;10.066;2022-08-03T02:04:42;18.30;94.90
31369;DHT22;18004;48.416;10.066;2022-08-03T02:07:10;18.20;95.50
31369;DHT22;18004;48.416;10.066;2022-08-03T02:09:38;18.20;95.30
31369;DHT22;18004;48.416;10.066;2022-08-03T02:12:08;18.20;95.90
31369;DHT22;18004;48.416;10.066;2022-08-03T02:14:36;18.20;95.90
31369;DHT22;18004;48.416;10.066;2022-08-03T02:17:06;18.10;96.20
31369;DHT22;18004;48.416;10.066;2022-08-03T02:19:35;18.10;96.00
31369;DHT22;18004;48.416;10.066;2022-08-03T02:22:01;18.10;95.90
31369;DHT22;18004;48.416;10.066;2022-08-03T02:24:28;18.10;95.90
31369;DHT22;18004;48.416;10.066;2022-08-03T02:26:55;18.10;96.60
31369;DHT22;18004;48.416;10.066;2022-08-03T02:29:24;18.10;96.60
31369;DHT22;18004;48.416;10.066;2022-08-03T02:31:51;18.10;95.90
31369;DHT22;18004;48.416;10.066;2022-08-03T02:34:21;18.10;95.90
31369;DHT22;18004;48.416;10.066;2022-08-03T02:36:49;18.00;95.70
31369;DHT22;18004;48.416;10.066;2022-08-03T02:39:19;17.90;95.70
31369;DHT22;18004;48.416;10.066;2022-08-03T02:41:51;17.80;95.80
31369;DHT22;18004;48.416;10.066;2022-08-03T02:44:24;17.70;95.80
31369;DHT22;18004;48.416;10.066;2022-08-03T02:46:54;17.70;95.80
31369;DHT22;18004;48.416;10.066;2022-08-03T02:49:22;17.70;96.10
31369;DHT22;18004;48.416;10.066;2022-08-03T02:51:51;17.60;96.30
31369;DHT22;18004;48.416;10.066;2022-08-03T02:54:19;17.60;97.00
31369;DHT22;18004;48.416;10.066;2022-08-03T02:56:47;17.50;96.80
31369;DHT22;18004;48.416;10.066;2022-08-03T02:59:16;17.50;97.00
31369;DHT22;18004;48.416;10.066;2022-08-03T03:01:43;17.50;96.90
31369;DHT22;18004;48.416;10.066;2022-08-03T03:04:10;17.60;97.40
31369;DHT22;18004;48.416;10.066;2022-08-03T03:06:38;17.50;97.60
31369;DHT22;18004;48.416;10.066;2022-08-03T03:09:04;17.50;96.80
31369;DHT22;18004;48.416;10.066;2022-08-03T03:11:30;17.50;97.40
31369;DHT22;18004;48.416;10.066;2022-08-03T03:13:57;17.50;97.30
31369;DHT22;18004;48.416;10.066;2022-08-03T03:16:25;17.50;97.70
31369;DHT22;18004;48.416;10.066;2022-08-03T03:18:53;17.50;98.00
31369;DHT22;18004;48.416;10.066;2022-08-03T03:21:23;17.40;98.50
31369;DHT22;18004;48.416;10.066;2022-08-03T03:23:49;17.40;99.10
31369;DHT22;18004;48.416;10.066;2022-08-03T03:26:16;17.30;98.30
31369;DHT22;18004;48.416;10.066;2022-08-03T03:28:43;17.30;98.10
31369;DHT22;18004;48.416;10.066;2022-08-03T03:31:09;17.30;98.70
31369;DHT22;18004;48.416;10.066;2022-08-03T03:33:36;17.30;99.00
31369;DHT22;18004;48.416;10.066;2022-08-03T03:36:04;17.30;99.60
31369;DHT22;18004;48.416;10.066;2022-08-03T03:38:31;17.20;98.60
31369;DHT22;18004;48.416;10.066;2022-08-03T03:40:58;17.30;99.60
31369;DHT22;18004;48.416;10.066;2022-08-03T03:43:24;17.20;99.90
31369;DHT22;18004;48.416;10.066;2022-08-03T03:45:50;17.20;99.40
31369;DHT22;18004;48.416;10.066;2022-08-03T03:48:18;17.20;99.70
31369;DHT22;18004;48.416;10.066;2022-08-03T03:50:44;17.20;99.80
31369;DHT22;18004;48.416;10.066;2022-08-03T03:53:13;17.20;99.70
31369;DHT22;18004;48.416;10.066;2022-08-03T03:55:42;17.20;99.90
31369;DHT22;18004;48.416;10.066;2022-08-03T03:58:08;17.20;99.90
31369;DHT22;18004;48.416;10.066;2022-08-03T04:00:34;17.20;99.90
31369;DHT22;18004;48.416;10.066;2022-08-03T04:03:00;17.20;99.60
31369;DHT22;18004;48.416;10.066;2022-08-03T04:05:26;17.20;99.40
31369;DHT22;18004;48.416;10.066;2022-08-03T04:08:14;17.20;99.40
31369;DHT22;18004;48.416;10.066;2022-08-03T04:13:56;17.20;99.10
31369;DHT22;18004;48.416;10.066;2022-08-03T04:16:26;17.20;98.60
31369;DHT22;18004;48.416;10.066;2022-08-03T04:18:59;17.20;98.60
31369;DHT22;18004;48.416;10.066;2022-08-03T04:21:27;17.20;98.60
31369;DHT22;18004;48.416;10.066;2022-08-03T04:23:58;17.20;98.90
31369;DHT22;18004;48.416;10.066;2022-08-03T04:26:27;17.10;98.70
31369;DHT22;18004;48.416;10.066;2022-08-03T04:28:54;17.10;98.60
31369;DHT22;18004;48.416;10.066;2022-08-03T04:31:22;17.10;98.30
31369;DHT22;18004;48.416;10.066;2022-08-03T04:33:50;17.10;98.00
31369;DHT22;18004;48.416;10.066;2022-08-03T04:36:24;17.10;97.90
31369;DHT22;18004;48.416;10.066;2022-08-03T04:39:02;17.20;98.60
31369;DHT22;18004;48.416;10.066;2022-08-03T04:41:29;17.20;98.90
31369;DHT22;18004;48.416;10.066;2022-08-03T04:43:57;17.20;99.60
31369;DHT22;18004;48.416;10.066;2022-08-03T04:46:33;17.20;99.60
31369;DHT22;18004;48.416;10.066;2022-08-03T04:49:00;17.20;99.50
31369;DHT22;18004;48.416;10.066;2022-08-03T04:51:27;17.20;99.70
31369;DHT22;18004;48.416;10.066;2022-08-03T04:53:53;17.20;99.90
31369;DHT22;18004;48.416;10.066;2022-08-03T04:56:19;17.30;99.90
31369;DHT22;18004;48.416;10.066;2022-08-03T04:58:44;17.30;99.90
31369;DHT22;18004;48.416;10.066;2022-08-03T05:01:10;17.30;99.90
31369;DHT22;18004;48.416;10.066;2022-08-03T05:03:36;17.30;99.90
31369;DHT22;18004;48.416;10.066;2022-08-03T05:06:02;17.30;99.90
31369;DHT22;18004;48.416;10.066;2022-08-03T05:08:28;17.30;99.90
31369;DHT22;18004;48.416;10.066;2022-08-03T05:10:55;17.30;99.90
31369;DHT22;18004;48.416;10.066;2022-08-03T05:13:21;17.40;99.90
31369;DHT22;18004;48.416;10.066;2022-08-03T05:15:50;17.50;99.90
31369;DHT22;18004;48.416;10.066;2022-08-03T05:18:15;17.50;99.90
31369;DHT22;18004;48.416;10.066;2022-08-03T05:20:41;17.50;99.90
31369;DHT22;18004;48.416;10.066;2022-08-03T05:23:07;17.50;99.90
31369;DHT22;18004;48.416;10.066;2022-08-03T05:25:33;17.60;99.90
31369;DHT22;18004;48.416;10.066;2022-08-03T05:27:58;17.70;99.90
31369;DHT22;18004;48.416;10.066;2022-08-03T05:30:24;17.70;99.90
31369;DHT22;18004;48.416;10.066;2022-08-03T05:32:50;17.70;99.90
31369;DHT22;18004;48.416;10.066;2022-08-03T05:35:16;17.80;99.90
31369;DHT22;18004;48.416;10.066;2022-08-03T05:37:41;17.80;99.90
31369;DHT22;18004;48.416;10.066;2022-08-03T05:40:08;17.90;99.90
31369;DHT22;18004;48.416;10.066;2022-08-03T05:42:36;18.00;99.90
31369;DHT22;18004;48.416;10.066;2022-08-03T05:45:05;18.00;99.90
31369;DHT22;18004;48.416;10.066;2022-08-03T05:47:42;18.00;99.90
31369;DHT22;18004;48.416;10.066;2022-08-03T05:50:10;18.10;99.90
31369;DHT22;18004;48.416;10.066;2022-08-03T05:52:37;18.20;99.90
31369;DHT22;18004;48.416;10.066;2022-08-03T05:55:04;18.20;99.90
31369;DHT22;18004;48.416;10.066;2022-08-03T05:57:30;18.30;99.90
31369;DHT22;18004;48.416;10.066;2022-08-03T05:59:56;18.30;99.90
31369;DHT22;18004;48.416;10.066;2022-08-03T06:02:22;18.30;99.90
31369;DHT22;18004;48.416;10.066;2022-08-03T06:04:47;18.40;99.90
31369;DHT22;18004;48.416;10.066;2022-08-03T06:07:13;18.50;99.90
31369;DHT22;18004;48.416;10.066;2022-08-03T06:09:39;18.50;99.90
31369;DHT22;18004;48.416;10.066;2022-08-03T06:12:06;18.50;99.90
31369;DHT22;18004;48.416;10.066;2022-08-03T06:14:32;18.60;99.90
31369;DHT22;18004;48.416;10.066;2022-08-03T06:16:57;18.70;99.90
31369;DHT22;18004;48.416;10.066;2022-08-03T06:19:23;18.70;99.90
31369;DHT22;18004;48.416;10.066;2022-08-03T06:21:50;18.80;99.90
31369;DHT22;18004;48.416;10.066;2022-08-03T06:24:15;18.90;99.90
31369;DHT22;18004;48.416;10.066;2022-08-03T06:26:41;19.00;99.90
31369;DHT22;18004;48.416;10.066;2022-08-03T06:29:07;19.00;99.90
31369;DHT22;18004;48.416;10.066;2022-08-03T06:31:35;19.10;99.90
31369;DHT22;18004;48.416;10.066;2022-08-03T06:34:04;19.20;99.90
31369;DHT22;18004;48.416;10.066;2022-08-03T06:36:31;19.30;99.90
31369;DHT22;18004;48.416;10.066;2022-08-03T06:38:57;19.40;99.90
31369;DHT22;18004;48.416;10.066;2022-08-03T06:41:24;19.30;99.90
31369;DHT22;18004;48.416;10.066;2022-08-03T06:43:50;19.40;99.90
31369;DHT22;18004;48.416;10.066;2022-08-03T06:46:16;19.50;99.90
31369;DHT22;18004;48.416;10.066;2022-08-03T06:48:42;19.70;99.90
31369;DHT22;18004;48.416;10.066;2022-08-03T06:51:08;19.80;99.90
31369;DHT22;18004;48.416;10.066;2022-08-03T06:53:35;20.00;98.90
31369;DHT22;18004;48.416;10.066;2022-08-03T06:56:00;20.20;97.40
31369;DHT22;18004;48.416;10.066;2022-08-03T06:58:26;20.20;95.90
31369;DHT22;18004;48.416;10.066;2022-08-03T07:00:52;20.30;94.40
31369;DHT22;18004;48.416;10.066;2022-08-03T07:03:18;20.40;96.70
31369;DHT22;18004;48.416;10.066;2022-08-03T07:05:44;20.40;94.30
31369;DHT22;18004;48.416;10.066;2022-08-03T07:08:13;20.60;94.40
31369;DHT22;18004;48.416;10.066;2022-08-03T07:10:39;20.70;94.70
31369;DHT22;18004;48.416;10.066;2022-08-03T07:13:05;20.90;94.30
31369;DHT22;18004;48.416;10.066;2022-08-03T07:15:31;21.10;93.90
31369;DHT22;18004;48.416;10.066;2022-08-03T07:17:57;21.20;93.10
31369;DHT22;18004;48.416;10.066;2022-08-03T07:20:23;21.40;93.10
31369;DHT22;18004;48.416;10.066;2022-08-03T07:22:49;21.50;91.10
31369;DHT22;18004;48.416;10.066;2022-08-03T07:25:15;21.70;87.90
31369;DHT22;18004;48.416;10.066;2022-08-03T07:27:47;21.90;88.40
31369;DHT22;18004;48.416;10.066;2022-08-03T07:30:14;22.30;84.20
31369;DHT22;18004;48.416;10.066;2022-08-03T07:32:45;22.50;80.70
31369;DHT22;18004;48.416;10.066;2022-08-03T07:35:34;22.90;74.80
31369;DHT22;18004;48.416;10.066;2022-08-03T07:38:00;23.10;74.80
31369;DHT22;18004;48.416;10.066;2022-08-03T07:40:27;23.10;70.10
31369;DHT22;18004;48.416;10.066;2022-08-03T07:42:59;23.10;70.30
31369;DHT22;18004;48.416;10.066;2022-08-03T07:45:26;23.20;68.10
31369;DHT22;18004;48.416;10.066;2022-08-03T07:48:12;23.30;67.00
31369;DHT22;18004;48.416;10.066;2022-08-03T07:50:39;23.30;64.70
31369;DHT22;18004;48.416;10.066;2022-08-03T07:53:04;23.60;62.00
31369;DHT22;18004;48.416;10.066;2022-08-03T07:55:30;23.80;61.70
31369;DHT22;18004;48.416;10.066;2022-08-03T07:58:11;24.10;57.00
31369;DHT22;18004;48.416;10.066;2022-08-03T08:01:05;24.20;58.20
31369;DHT22;18004;48.416;10.066;2022-08-03T08:03:52;24.80;45.90
31369;DHT22;18004;48.416;10.066;2022-08-03T08:09:46;25.20;42.10
31369;DHT22;18004;48.416;10.066;2022-08-03T08:12:11;25.00;38.20
31369;DHT22;18004;48.416;10.066;2022-08-03T08:14:38;25.20;39.20
31369;DHT22;18004;48.416;10.066;2022-08-03T08:20:57;25.60;33.80
31369;DHT22;18004;48.416;10.066;2022-08-03T08:29:17;26.10;29.80
31369;DHT22;18004;48.416;10.066;2022-08-03T08:32:43;25.90;30.00
31369;DHT22;18004;48.416;10.066;2022-08-03T08:59:32;27.30;20.30
31369;DHT22;18004;48.416;10.066;2022-08-03T09:06:21;27.80;19.00
31369;DHT22;18004;48.416;10.066;2022-08-03T09:28:44;29.40;12.20
31369;DHT22;18004;48.416;10.066;2022-08-03T09:39:20;29.40;12.80
31369;DHT22;18004;48.416;10.066;2022-08-03T09:42:27;30.20;10.00
31369;DHT22;18004;48.416;10.066;2022-08-03T10:19:39;30.00;1.00
31369;DHT22;18004;48.416;10.066;2022-08-03T14:18:24;33.80;1.00
31369;DHT22;18004;48.416;10.066;2022-08-03T15:33:36;32.80;1.00
31369;DHT22;18004;48.416;10.066;2022-08-03T15:44:38;32.20;1.00
31369;DHT22;18004;48.416;10.066;2022-08-03T16:18:48;31.80;1.00
31369;DHT22;18004;48.416;10.066;2022-08-03T17:55:43;30.10;1.00
31369;DHT22;18004;48.416;10.066;2022-08-03T18:14:15;29.70;1.00
31369;DHT22;18004;48.416;10.066;2022-08-03T18:17:05;29.60;1.00
31369;DHT22;18004;48.416;10.066;2022-08-03T18:23:25;29.70;1.00
31369;DHT22;18004;48.416;10.066;2022-08-03T18:25:59;29.60;1.00
31369;DHT22;18004;48.416;10.066;2022-08-03T18:28:30;29.60;1.00
31369;DHT22;18004;48.416;10.066;2022-08-03T18:38:50;29.50;1.00
31369;DHT22;18004;48.416;10.066;2022-08-03T19:43:41;27.10;15.50
31369;DHT22;18004;48.416;10.066;2022-08-03T20:43:05;25.40;27.40
31369;DHT22;18004;48.416;10.066;2022-08-03T20:46:41;25.20;27.70
31369;DHT22;18004;48.416;10.066;2022-08-03T20:53:04;25.00;31.30
31369;DHT22;18004;48.416;10.066;2022-08-03T21:17:31;24.50;35.30
31369;DHT22;18004;48.416;10.066;2022-08-03T21:20:46;24.50;33.90
31369;DHT22;18004;48.416;10.066;2022-08-03T21:27:37;24.30;37.40
31369;DHT22;18004;48.416;10.066;2022-08-03T21:30:13;24.20;37.80
31369;DHT22;18004;48.416;10.066;2022-08-03T21:32:44;24.10;37.70
31369;DHT22;18004;48.416;10.066;2022-08-03T21:35:17;24.10;37.40
31369;DHT22;18004;48.416;10.066;2022-08-03T21:37:44;24.10;36.10
31369;DHT22;18004;48.416;10.066;2022-08-03T21:40:18;24.00;38.20
31369;DHT22;18004;48.416;10.066;2022-08-03T21:43:05;23.90;38.50
31369;DHT22;18004;48.416;10.066;2022-08-03T21:46:08;23.80;38.00
31369;DHT22;18004;48.416;10.066;2022-08-03T21:48:52;23.70;39.00
31369;DHT22;18004;48.416;10.066;2022-08-03T21:51:56;23.60;38.50
31369;DHT22;18004;48.416;10.066;2022-08-03T21:54:25;23.50;37.10
31369;DHT22;18004;48.416;10.066;2022-08-03T21:56:57;23.30;34.50
31369;DHT22;18004;48.416;10.066;2022-08-03T21:59:26;23.20;33.70
31369;DHT22;18004;48.416;10.066;2022-08-03T22:01:52;23.10;36.70
31369;DHT22;18004;48.416;10.066;2022-08-03T22:04:37;23.10;38.40
31369;DHT22;18004;48.416;10.066;2022-08-03T22:07:03;23.10;38.60
31369;DHT22;18004;48.416;10.066;2022-08-03T22:09:29;23.10;37.90
31369;DHT22;18004;48.416;10.066;2022-08-03T22:12:10;23.10;36.80
31369;DHT22;18004;48.416;10.066;2022-08-03T22:14:48;23.00;37.80
31369;DHT22;18004;48.416;10.066;2022-08-03T22:17:14;22.80;40.00
31369;DHT22;18004;48.416;10.066;2022-08-03T22:19:41;22.60;47.50
31369;DHT22;18004;48.416;10.066;2022-08-03T22:22:07;22.40;48.30
31369;DHT22;18004;48.416;10.066;2022-08-03T22:24:41;22.20;52.20
31369;DHT22;18004;48.416;10.066;2022-08-03T22:30:15;22.30;52.80
31369;DHT22;18004;48.416;10.066;2022-08-03T22:32:53;22.40;51.60
31369;DHT22;18004;48.416;10.066;2022-08-03T22:35:24;22.40;49.30
31369;DHT22;18004;48.416;10.066;2022-08-03T22:38:05;22.40;48.90
31369;DHT22;18004;48.416;10.066;2022-08-03T22:40:31;22.30;51.60
31369;DHT22;18004;48.416;10.066;2022-08-03T22:42:57;22.20;53.70
31369;DHT22;18004;48.416;10.066;2022-08-03T22:45:23;22.10;54.10
31369;DHT22;18004;48.416;10.066;2022-08-03T22:47:49;22.00;56.50
31369;DHT22;18004;48.416;10.066;2022-08-03T22:50:15;21.90;56.30
31369;DHT22;18004;48.416;10.066;2022-08-03T22:52:42;21.80;57.80
31369;DHT22;18004;48.416;10.066;2022-08-03T22:55:14;21.70;55.60
31369;DHT22;18004;48.416;10.066;2022-08-03T22:57:42;21.80;55.80
31369;DHT22;18004;48.416;10.066;2022-08-03T23:00:33;21.80;54.30
31369;DHT22;18004;48.416;10.066;2022-08-03T23:03:05;21.70;56.90
31369;DHT22;18004;48.416;10.066;2022-08-03T23:05:32;21.60;57.40
31369;DHT22;18004;48.416;10.066;2022-08-03T23:08:02;21.60;56.90
31369;DHT22;18004;48.416;10.066;2022-08-03T23:10:32;21.60;56.00
31369;DHT22;18004;48.416;10.066;2022-08-03T23:13:00;21.60;54.50
31369;DHT22;18004;48.416;10.066;2022-08-03T23:15:29;21.60;55.00
31369;DHT22;18004;48.416;10.066;2022-08-03T23:17:59;21.50;54.30
31369;DHT22;18004;48.416;10.066;2022-08-03T23:20:28;21.50;56.30
31369;DHT22;18004;48.416;10.066;2022-08-03T23:22:55;21.40;57.50
31369;DHT22;18004;48.416;10.066;2022-08-03T23:25:22;21.40;59.10
31369;DHT22;18004;48.416;10.066;2022-08-03T23:27:49;21.40;58.80
31369;DHT22;18004;48.416;10.066;2022-08-03T23:30:16;21.40;56.20
31369;DHT22;18004;48.416;10.066;2022-08-03T23:32:43;21.40;54.20
31369;DHT22;18004;48.416;10.066;2022-08-03T23:35:09;21.40;56.90
31369;DHT22;18004;48.416;10.066;2022-08-03T23:37:55;21.30;59.80
31369;DHT22;18004;48.416;10.066;2022-08-03T23:40:25;21.20;59.30
31369;DHT22;18004;48.416;10.066;2022-08-03T23:42:55;21.20;61.30
31369;DHT22;18004;48.416;10.066;2022-08-03T23:45:21;21.00;68.40
31369;DHT22;18004;48.416;10.066;2022-08-03T23:47:49;20.80;70.90
31369;DHT22;18004;48.416;10.066;2022-08-03T23:50:16;20.80;72.50
31369;DHT22;18004;48.416;10.066;2022-08-03T23:55:35;20.90;71.90
